Time;durP1;ratioP1;P1;durP2;ratioP2;P2;SDS_P1;SDS_P2;PMS_P1;PMS_P2;Temp;Humidity;BMP_temperature;BMP_pressure;BME280_temperature;BME280_humidity;BME280_pressure;Samples;Min_cycle;Max_cycle;Signal;HPM_P1;HPM_P2
2021/03/27 00:02:05;;;;;;;6.47;2.63;;;10.70;99.90;;;;;;5006634;28;20034;-57
2021/03/27 00:04:36;;;;;;;8.50;4.13;;;10.70;99.90;;;;;;5016441;28;20022;-60
2021/03/27 00:07:30;;;;;;;5.45;3.30;;;10.60;99.90;;;;;;5008191;28;20641;-57
2021/03/27 00:10:16;;;;;;;8.82;5.13;;;10.50;99.90;;;;;;5000307;28;20136;-59
2021/03/27 00:12:52;;;;;;;8.35;5.25;;;10.20;99.90;;;;;;5003261;28;20045;-59
2021/03/27 00:15:24;;;;;;;8.73;5.68;;;9.80;99.90;;;;;;5002957;28;20168;-58
2021/03/27 00:18:08;;;;;;;17.65;6.15;;;9.50;99.90;;;;;;5002336;28;20049;-59
2021/03/27 00:20:34;;;;;;;9.52;5.05;;;9.30;99.90;;;;;;5009570;28;20033;-59
2021/03/27 00:23:28;;;;;;;7.03;3.92;;;9.10;99.90;;;;;;5009644;28;20038;-58
2021/03/27 00:26:00;;;;;;;10.75;3.53;;;8.90;99.90;;;;;;5007415;28;20032;-58
2021/03/27 00:28:32;;;;;;;10.50;3.13;;;8.70;99.90;;;;;;5009419;28;20554;-58
2021/03/27 00:31:32;;;;;;;4.88;1.90;;;8.50;99.90;;;;;;5009512;28;20032;-56
2021/03/27 00:34:03;;;;;;;5.28;1.77;;;8.40;99.90;;;;;;5008195;28;20026;-57
2021/03/27 00:36:46;;;;;;;5.82;1.42;;;8.30;99.90;;;;;;5008584;28;20479;-56
2021/03/27 00:39:14;;;;;;;9.85;1.42;;;8.20;99.90;;;;;;5008918;28;20030;-56
2021/03/27 00:41:54;;;;;;;1.60;1.10;;;8.10;99.90;;;;;;5009443;28;20034;-56
2021/03/27 00:44:29;;;;;;;4.72;1.48;;;7.90;99.90;;;;;;5006458;28;20053;-57
2021/03/27 00:46:57;;;;;;;2.85;1.25;;;7.90;99.90;;;;;;5007307;28;20040;-57
2021/03/27 00:49:28;;;;;;;4.65;1.30;;;7.90;99.90;;;;;;5009201;28;20040;-60
2021/03/27 00:52:00;;;;;;;9.95;1.75;;;7.80;99.90;;;;;;5016452;28;20600;-57
2021/03/27 00:54:28;;;;;;;3.15;2.00;;;7.80;99.90;;;;;;5010418;28;20084;-58
2021/03/27 00:57:18;;;;;;;7.88;2.08;;;7.70;99.90;;;;;;5020322;28;20069;-56
2021/03/27 01:00:14;;;;;;;8.70;2.33;;;7.70;99.90;;;;;;5022509;28;20377;-58
2021/03/27 01:02:49;;;;;;;5.32;2.30;;;7.70;99.90;;;;;;5015213;28;20140;-59
2021/03/27 01:05:19;;;;;;;7.95;3.20;;;7.60;99.90;;;;;;5015034;28;20030;-58
2021/03/27 01:07:47;;;;;;;8.77;3.45;;;7.40;99.90;;;;;;5004441;28;20026;-55
2021/03/27 01:10:40;;;;;;;3.58;2.90;;;7.40;99.90;;;;;;5016841;28;20057;-58
2021/03/27 01:13:11;;;;;;;3.75;2.47;;;7.30;99.90;;;;;;5008529;28;20085;-58
2021/03/27 01:15:43;;;;;;;2.47;2.08;;;7.00;99.90;;;;;;5009262;28;20029;-57
2021/03/27 01:18:15;;;;;;;5.38;2.70;;;6.80;99.90;;;;;;5010043;28;20112;-58
2021/03/27 01:21:03;;;;;;;4.07;2.50;;;6.80;99.90;;;;;;5009316;28;20029;-58
2021/03/27 01:23:29;;;;;;;2.97;2.33;;;6.70;99.90;;;;;;4957774;28;20030;-58
2021/03/27 01:25:59;;;;;;;2.40;1.70;;;6.70;99.90;;;;;;5007461;28;20021;-57
2021/03/27 01:28:42;;;;;;;4.57;2.05;;;6.60;99.90;;;;;;5006570;28;20056;-58
2021/03/27 01:31:08;;;;;;;2.65;1.73;;;6.60;99.90;;;;;;5009466;28;20020;-56
2021/03/27 01:33:58;;;;;;;1.98;1.52;;;6.50;99.90;;;;;;5008764;28;20026;-56
2021/03/27 01:36:39;;;;;;;4.15;2.05;;;6.50;99.90;;;;;;5008422;28;20056;-56
2021/03/27 01:39:13;;;;;;;2.10;1.63;;;6.50;99.90;;;;;;5010696;28;20040;-56
2021/03/27 01:41:57;;;;;;;2.38;1.85;;;6.40;99.90;;;;;;5008888;28;20446;-56
2021/03/27 01:44:41;;;;;;;1.70;1.52;;;6.30;99.90;;;;;;5007170;28;20022;-58
2021/03/27 01:47:27;;;;;;;2.50;1.87;;;6.40;99.90;;;;;;5007093;28;20038;-60
2021/03/27 01:50:27;;;;;;;6.07;2.28;;;6.40;99.90;;;;;;5010990;28;20634;-58
2021/03/27 01:53:33;;;;;;;2.78;2.20;;;6.30;99.90;;;;;;5008836;28;20030;-57
2021/03/27 01:56:25;;;;;;;2.25;2.00;;;6.30;99.90;;;;;;4997530;28;20487;-59
2021/03/27 01:59:02;;;;;;;2.75;2.05;;;6.20;99.90;;;;;;5004191;28;20040;-57
2021/03/27 02:01:58;;;;;;;4.03;2.20;;;6.20;99.90;;;;;;5007840;28;20045;-55
2021/03/27 02:04:41;;;;;;;3.47;2.55;;;6.20;99.90;;;;;;5006064;28;20097;-55
2021/03/27 02:07:18;;;;;;;7.15;2.90;;;6.10;99.90;;;;;;5003726;28;20040;-56
2021/03/27 02:09:54;;;;;;;5.22;2.38;;;6.10;99.90;;;;;;5003949;28;20033;-54
2021/03/27 02:12:57;;;;;;;3.03;2.03;;;6.00;99.90;;;;;;5013315;28;20034;-54
2021/03/27 02:15:47;;;;;;;3.05;1.60;;;6.00;99.90;;;;;;5008600;28;20021;-57
2021/03/27 02:18:36;;;;;;;6.55;1.80;;;5.90;99.90;;;;;;5009045;28;20105;-55
2021/03/27 02:21:29;;;;;;;3.38;1.83;;;5.90;99.90;;;;;;5008073;28;20033;-55
2021/03/27 02:24:03;;;;;;;2.30;1.60;;;5.90;99.90;;;;;;5004272;28;20026;-53
2021/03/27 02:26:41;;;;;;;;;;;5.90;99.90;;;;;;5010233;28;20076;-57
2021/03/27 02:29:28;;;;;;;3.20;1.73;;;5.80;99.90;;;;;;5008929;28;20001;-55
2021/03/27 02:32:08;;;;;;;3.28;1.70;;;5.80;99.90;;;;;;4999602;28;20025;-55
2021/03/27 02:34:54;;;;;;;2.55;1.80;;;5.70;99.90;;;;;;5006891;28;20029;-54
2021/03/27 02:37:20;;;;;;;5.10;2.33;;;5.80;99.90;;;;;;5009559;28;20030;-56
2021/03/27 02:40:05;;;;;;;4.60;2.58;;;5.80;99.90;;;;;;5016136;28;20036;-55
2021/03/27 02:42:58;;;;;;;7.03;3.30;;;5.80;99.90;;;;;;5004479;28;20391;-56
2021/03/27 02:45:28;;;;;;;7.22;3.38;;;5.70;99.90;;;;;;5010618;28;20021;-56
2021/03/27 02:48:17;;;;;;;7.00;4.72;;;5.70;99.90;;;;;;5012574;28;20037;-53
2021/03/27 02:50:57;;;;;;;9.95;5.47;;;5.70;99.90;;;;;;5012473;28;20083;-52
2021/03/27 02:53:32;;;;;;;7.55;4.88;;;5.60;99.90;;;;;;5005265;28;20490;-54
2021/03/27 02:56:23;;;;;;;5.90;4.10;;;5.60;99.90;;;;;;5008644;28;20436;-52
2021/03/27 02:59:31;;;;;;;5.18;2.83;;;5.60;99.90;;;;;;5014570;28;20075;-53
2021/03/27 03:02:07;;;;;;;5.38;2.80;;;5.70;99.90;;;;;;4993335;28;20049;-53
2021/03/27 03:04:53;;;;;;;3.58;2.30;;;5.70;99.90;;;;;;5011018;28;20021;-55
2021/03/27 03:08:12;;;;;;;3.60;2.00;;;5.70;99.90;;;;;;5011635;28;20058;-53
2021/03/27 03:10:55;;;;;;;6.10;2.63;;;5.70;99.90;;;;;;4998658;28;20030;-57
2021/03/27 03:13:35;;;;;;;3.88;1.90;;;5.70;99.90;;;;;;5009642;28;20042;-53
2021/03/27 03:16:34;;;;;;;3.38;1.60;;;5.80;99.90;;;;;;5011710;28;20025;-54
2021/03/27 03:19:15;;;;;;;1.90;1.30;;;5.70;99.90;;;;;;5004349;28;20117;-57
2021/03/27 03:21:55;;;;;;;2.45;1.30;;;5.70;99.90;;;;;;5027476;28;20022;-58
2021/03/27 03:24:35;;;;;;;2.42;1.13;;;5.70;99.90;;;;;;5028968;28;20026;-57
2021/03/27 03:27:22;;;;;;;3.65;1.30;;;5.70;99.90;;;;;;5024412;28;20026;-55
2021/03/27 03:30:05;;;;;;;2.80;1.10;;;5.70;99.90;;;;;;5011563;28;20030;-55
2021/03/27 03:32:49;;;;;;;5.97;1.45;;;5.70;99.90;;;;;;5009354;28;20053;-55
2021/03/27 03:35:23;;;;;;;3.47;1.23;;;5.70;99.90;;;;;;5017233;28;20069;-55
2021/03/27 03:38:17;;;;;;;5.60;1.20;;;5.80;99.90;;;;;;5009963;28;20403;-53
2021/03/27 03:40:48;;;;;;;5.13;1.48;;;5.70;99.90;;;;;;5011275;28;20038;-56
2021/03/27 03:43:54;;;;;;;5.90;1.60;;;5.70;99.90;;;;;;5011687;28;20087;-57
2021/03/27 03:46:29;;;;;;;4.03;1.50;;;5.70;99.90;;;;;;5010370;28;20053;-54
2021/03/27 03:49:25;;;;;;;5.97;1.60;;;5.70;99.90;;;;;;5005583;28;20515;-54
2021/03/27 03:51:58;;;;;;;4.88;1.27;;;5.70;99.90;;;;;;5018937;28;20025;-52
2021/03/27 03:54:46;;;;;;;5.78;1.35;;;5.70;99.90;;;;;;5010066;28;20033;-55
2021/03/27 03:57:29;;;;;;;7.03;2.38;;;5.70;99.90;;;;;;5010735;28;20451;-53
2021/03/27 04:00:20;;;;;;;11.00;2.03;;;5.80;99.90;;;;;;5010494;28;20112;-56
2021/03/27 04:03:17;;;;;;;4.55;1.45;;;5.80;99.90;;;;;;5009901;28;20073;-53
2021/03/27 04:05:52;;;;;;;10.55;1.80;;;5.80;99.90;;;;;;5010856;28;20053;-55
2021/03/27 04:08:44;;;;;;;7.45;1.30;;;5.80;99.90;;;;;;5011189;28;20033;-56
2021/03/27 04:11:49;;;;;;;4.38;1.50;;;5.80;99.90;;;;;;4992327;28;20046;-54
2021/03/27 04:14:27;;;;;;;4.20;1.40;;;5.80;99.90;;;;;;5005116;28;20128;-55
2021/03/27 04:16:59;;;;;;;7.40;1.60;;;5.80;99.90;;;;;;5009579;28;20030;-54
2021/03/27 04:19:28;;;;;;;12.68;1.75;;;5.80;99.90;;;;;;5010321;28;20022;-55
2021/03/27 04:22:14;;;;;;;9.75;2.95;;;5.80;99.90;;;;;;5011715;28;20029;-55
2021/03/27 04:24:55;;;;;;;11.80;2.05;;;5.80;99.90;;;;;;5010557;28;20037;-55
2021/03/27 04:27:33;;;;;;;10.57;2.10;;;5.80;99.90;;;;;;5020434;28;20033;-55
2021/03/27 04:30:19;;;;;;;8.65;1.90;;;5.80;99.90;;;;;;5009919;28;20018;-53
2021/03/27 04:32:57;;;;;;;9.82;2.15;;;5.80;99.90;;;;;;5010979;28;20022;-55
2021/03/27 04:35:46;;;;;;;15.77;3.45;;;5.80;99.90;;;;;;5010959;28;20033;-56
2021/03/27 04:38:24;;;;;;;10.20;1.83;;;5.80;99.90;;;;;;5009327;28;20026;-56
2021/03/27 04:40:49;;;;;;;6.70;1.77;;;5.80;99.90;;;;;;5004574;28;20509;-54
2021/03/27 04:43:39;;;;;;;5.65;2.03;;;5.70;99.90;;;;;;5010100;28;20026;-56
2021/03/27 04:46:15;;;;;;;8.02;1.85;;;5.70;99.90;;;;;;5015530;28;20037;-57
2021/03/27 04:49:21;;;;;;;10.20;1.55;;;5.70;99.90;;;;;;5010238;28;20100;-56
2021/03/27 04:52:18;;;;;;;7.57;1.48;;;5.60;99.90;;;;;;4988771;28;20030;-57
2021/03/27 04:55:19;;;;;;;6.15;1.50;;;5.50;99.90;;;;;;4968479;28;20105;-54
2021/03/27 04:58:20;;;;;;;4.38;1.23;;;5.40;99.90;;;;;;4957542;28;20423;-56
2021/03/27 05:01:09;;;;;;;6.85;1.50;;;5.30;99.90;;;;;;4985571;28;20041;-56
2021/03/27 05:03:56;;;;;;;11.07;1.40;;;5.20;99.90;;;;;;5010634;28;20022;-55
2021/03/27 05:06:37;;;;;;;6.35;1.75;;;5.20;99.90;;;;;;5013576;28;20543;-55
2021/03/27 05:09:33;;;;;;;15.73;2.63;;;5.10;99.90;;;;;;4995277;28;20021;-56
2021/03/27 05:12:05;;;;;;;10.88;1.13;;;5.00;99.90;;;;;;4988352;28;20046;-55
2021/03/27 05:14:39;;;;;;;6.93;1.75;;;4.90;99.90;;;;;;5034447;28;20029;-52
2021/03/27 05:17:28;;;;;;;5.82;1.30;;;4.80;99.90;;;;;;5007315;28;20108;-54
2021/03/27 05:20:13;;;;;;;9.25;1.58;;;4.80;99.90;;;;;;5002014;28;20039;-55
2021/03/27 05:23:01;;;;;;;7.65;1.48;;;4.70;99.90;;;;;;5006615;28;20080;-53
2021/03/27 05:25:44;;;;;;;9.02;1.85;;;4.70;99.90;;;;;;5008254;28;20030;-56
2021/03/27 05:28:34;;;;;;;7.30;1.10;;;4.70;99.90;;;;;;5003042;28;20444;-54
2021/03/27 05:31:29;;;;;;;10.25;2.10;;;4.70;99.90;;;;;;5008747;28;20026;-56
2021/03/27 05:34:14;;;;;;;10.13;1.55;;;4.80;99.90;;;;;;5006445;28;20026;-56
2021/03/27 05:37:16;;;;;;;9.68;1.27;;;4.90;99.90;;;;;;5001407;28;20268;-56
2021/03/27 05:40:18;;;;;;;8.00;1.17;;;5.00;99.90;;;;;;5009305;28;20454;-54
2021/03/27 05:43:21;;;;;;;13.65;3.08;;;5.10;99.90;;;;;;5010408;28;20033;-58
2021/03/27 05:46:11;;;;;;;8.98;1.85;;;5.10;99.90;;;;;;5011000;28;20025;-58
2021/03/27 05:48:49;;;;;;;8.80;1.92;;;5.20;99.90;;;;;;5009010;28;20058;-56
2021/03/27 05:51:41;;;;;;;13.65;2.17;;;5.30;99.90;;;;;;5011871;28;20022;-57
2021/03/27 05:54:45;;;;;;;6.72;1.00;;;5.30;99.90;;;;;;5009437;28;20551;-57
2021/03/27 05:57:32;;;;;;;12.30;2.10;;;5.30;99.90;;;;;;5004867;28;20041;-56
2021/03/27 06:00:24;;;;;;;11.20;2.58;;;5.40;99.90;;;;;;5010719;28;20091;-54
2021/03/27 06:03:09;;;;;;;12.18;2.40;;;5.40;99.90;;;;;;4997116;28;20041;-57
2021/03/27 06:06:12;;;;;;;10.30;1.30;;;5.40;99.90;;;;;;5038225;28;20032;-56
2021/03/27 06:09:17;;;;;;;7.18;1.23;;;5.50;99.90;;;;;;5025860;28;20132;-56
2021/03/27 06:11:58;;;;;;;5.75;0.98;;;5.50;99.90;;;;;;5002472;28;20041;-56
2021/03/27 06:14:36;;;;;;;10.95;1.73;;;5.50;99.90;;;;;;5010040;28;20062;-56
2021/03/27 06:17:14;;;;;;;4.50;0.98;;;5.50;99.90;;;;;;5015611;28;20034;-55
2021/03/27 06:20:13;;;;;;;8.45;1.50;;;5.60;99.90;;;;;;5011174;28;20025;-56
2021/03/27 06:22:58;;;;;;;4.25;1.13;;;5.70;99.90;;;;;;5018512;28;20022;-57
2021/03/27 06:25:37;;;;;;;8.77;1.63;;;5.70;99.90;;;;;;5012286;28;20029;-57
2021/03/27 06:28:21;;;;;;;6.80;2.20;;;5.70;99.90;;;;;;5015608;28;20108;-56
2021/03/27 06:31:11;;;;;;;10.35;2.05;;;5.80;99.90;;;;;;5012515;28;20044;-54
2021/03/27 06:34:14;;;;;;;10.65;1.65;;;5.80;99.90;;;;;;5012537;28;20033;-56
2021/03/27 06:37:18;;;;;;;14.30;1.50;;;5.90;99.90;;;;;;5012173;28;20109;-55
2021/03/27 06:39:49;;;;;;;5.70;1.05;;;6.00;99.90;;;;;;5012481;28;20491;-57
2021/03/27 06:42:39;;;;;;;10.00;1.88;;;6.20;99.90;;;;;;5013035;28;20045;-57
2021/03/27 06:45:48;;;;;;;6.93;1.30;;;6.50;99.90;;;;;;5011787;28;20049;-56
2021/03/27 06:48:35;;;;;;;8.00;1.40;;;6.70;99.90;;;;;;5009591;28;20117;-55
2021/03/27 06:51:13;;;;;;;10.63;1.83;;;6.70;99.90;;;;;;5008532;28;20057;-55
2021/03/27 06:54:13;;;;;;;8.98;1.63;;;6.70;99.90;;;;;;5012553;28;20026;-58
2021/03/27 06:56:44;;;;;;;6.28;1.40;;;6.70;99.90;;;;;;5012636;28;20034;-59
2021/03/27 06:59:42;;;;;;;5.80;2.13;;;6.50;99.90;;;;;;5012835;28;20454;-53
2021/03/27 07:02:29;;;;;;;15.25;2.55;;;6.40;99.90;;;;;;4994071;28;20511;-56
2021/03/27 07:05:20;;;;;;;12.05;1.42;;;6.30;99.90;;;;;;5012267;28;20018;-55
2021/03/27 07:07:57;;;;;;;11.02;1.92;;;6.10;99.90;;;;;;5012214;28;20038;-56
2021/03/27 07:10:28;;;;;;;6.68;1.45;;;6.00;99.90;;;;;;5011400;28;20697;-53
2021/03/27 07:13:31;;;;;;;8.45;2.78;;;5.60;99.90;;;;;;4985976;28;20037;-56
2021/03/27 07:16:15;;;;;;;15.93;3.50;;;5.20;99.90;;;;;;5009969;28;20509;-54
2021/03/27 07:19:11;;;;;;;4.10;2.05;;;4.80;99.90;;;;;;5010937;28;20053;-53
2021/03/27 07:22:14;;;;;;;7.43;2.63;;;4.50;99.90;;;;;;5011547;28;20030;-56
2021/03/27 07:24:48;;;;;;;20.80;8.95;;;4.30;99.90;;;;;;5011271;28;20026;-55
2021/03/27 07:27:23;;;;;;;;;;;3.80;99.90;;;;;;5012020;28;20387;-53
2021/03/27 07:30:16;;;;;;;28.23;9.90;;;3.70;99.90;;;;;;4997798;28;19996;-56
2021/03/27 07:32:57;;;;;;;72.78;29.02;;;3.60;99.90;;;;;;5011327;28;20161;-53
2021/03/27 07:35:40;;;;;;;18.52;8.60;;;3.60;99.90;;;;;;5003997;28;20125;-56
2021/03/27 07:38:34;;;;;;;11.00;3.75;;;3.60;99.90;;;;;;5010730;28;20466;-55
2021/03/27 07:41:18;;;;;;;14.50;6.13;;;3.60;99.90;;;;;;5008655;28;20038;-55
2021/03/27 07:43:46;;;;;;;;;;;3.60;99.90;;;;;;5011804;28;20041;-55
2021/03/27 07:46:30;;;;;;;4.45;1.80;;;3.70;99.90;;;;;;5000255;28;20377;-54
2021/03/27 07:49:38;;;;;;;5.63;1.67;;;3.80;99.90;;;;;;5011408;28;20026;-55
2021/03/27 07:52:32;;;;;;;2.78;1.38;;;3.90;99.90;;;;;;5008629;28;20034;-54
2021/03/27 07:55:25;;;;;;;4.13;1.27;;;4.10;99.90;;;;;;5008933;28;20496;-54
2021/03/27 07:57:53;;;;;;;3.53;0.98;;;4.40;99.90;;;;;;5007711;28;20045;-53
2021/03/27 08:00:52;;;;;;;1.75;0.80;;;4.50;99.90;;;;;;5009861;28;20033;-55
2021/03/27 08:03:50;;;;;;;2.90;1.42;;;4.70;99.90;;;;;;4984622;28;20133;-59
2021/03/27 08:06:51;;;;;;;2.53;1.40;;;5.10;99.90;;;;;;5020395;28;20034;-57
2021/03/27 08:09:54;;;;;;;2.67;1.25;;;5.40;99.90;;;;;;4998772;28;20513;-57
2021/03/27 08:12:20;;;;;;;1.90;1.00;;;5.40;99.90;;;;;;5010857;28;20026;-54
2021/03/27 08:15:00;;;;;;;3.42;0.90;;;5.40;99.90;;;;;;4990000;28;20025;-60
2021/03/27 08:17:58;;;;;;;2.28;0.80;;;5.50;99.90;;;;;;5028337;28;20100;-54
2021/03/27 08:20:33;;;;;;;4.80;1.50;;;5.30;99.90;;;;;;5031040;28;20109;-54
2021/03/27 08:23:04;;;;;;;3.33;0.60;;;5.40;99.90;;;;;;5016850;28;20542;-54
2021/03/27 08:25:46;;;;;;;5.30;0.90;;;5.40;99.90;;;;;;5029506;28;20034;-54
2021/03/27 08:28:45;;;;;;;2.33;0.80;;;5.50;99.90;;;;;;5019309;28;20037;-55
2021/03/27 08:31:41;;;;;;;3.55;0.75;;;5.60;99.90;;;;;;5028314;28;20025;-56
2021/03/27 08:34:10;;;;;;;6.13;0.60;;;5.80;99.90;;;;;;5018956;28;20026;-54
2021/03/27 08:36:55;;;;;;;3.75;0.75;;;5.90;99.90;;;;;;5029501;28;20033;-59
2021/03/27 08:39:21;;;;;;;4.15;1.27;;;6.00;99.90;;;;;;5018242;28;20494;-57
2021/03/27 08:42:14;;;;;;;2.28;0.80;;;6.20;99.90;;;;;;5022573;28;20033;-59
2021/03/27 08:45:02;;;;;;;2.70;0.57;;;6.50;99.90;;;;;;5017980;28;20049;-58
2021/03/27 08:47:39;;;;;;;1.67;0.93;;;6.50;99.90;;;;;;5027270;28;20036;-57
2021/03/27 08:50:36;;;;;;;1.45;0.70;;;6.40;99.90;;;;;;5016242;28;20030;-59
2021/03/27 08:53:39;;;;;;;4.40;0.80;;;6.60;99.90;;;;;;5028802;28;20120;-56
2021/03/27 08:56:46;;;;;;;5.65;0.80;;;6.70;99.90;;;;;;5029925;28;20029;-57
2021/03/27 08:59:44;;;;;;;9.38;0.98;;;6.70;99.90;;;;;;5017267;28;20073;-53
2021/03/27 09:02:16;;;;;;;5.47;1.10;;;7.20;99.90;;;;;;4991140;28;20487;-58
2021/03/27 09:05:00;;;;;;;9.63;1.65;;;7.60;99.90;;;;;;5028613;28;20053;-57
2021/03/27 09:07:39;;;;;;;11.50;2.22;;;7.30;99.90;;;;;;5027747;28;20471;-58
2021/03/27 09:10:30;;;;;;;4.50;1.90;;;7.50;99.90;;;;;;5029421;28;20018;-56
2021/03/27 09:13:12;;;;;;;7.97;2.03;;;7.90;99.90;;;;;;5024305;28;20372;-59
2021/03/27 09:15:42;;;;;;;9.43;2.90;;;8.40;99.90;;;;;;5029112;28;20034;-58
2021/03/27 09:18:43;;;;;;;16.48;2.65;;;8.50;99.90;;;;;;5030174;28;20048;-59
2021/03/27 09:21:30;;;;;;;14.95;5.28;;;8.40;99.90;;;;;;5010311;28;20168;-55
2021/03/27 09:24:30;;;;;;;19.95;3.80;;;8.10;99.90;;;;;;5025287;28;20091;-59
2021/03/27 09:27:14;;;;;;;17.02;4.32;;;8.30;99.90;;;;;;5025772;28;20022;-56
2021/03/27 09:29:53;;;;;;;18.65;4.60;;;8.70;99.90;;;;;;5028569;28;20051;-54
2021/03/27 09:32:47;;;;;;;14.95;5.20;;;8.80;99.90;;;;;;5030274;28;20029;-56
2021/03/27 09:35:31;;;;;;;12.35;4.07;;;8.90;99.90;;;;;;5026383;28;20626;-56
2021/03/27 09:38:20;;;;;;;19.20;3.97;;;8.70;99.90;;;;;;5025718;28;20034;-57
2021/03/27 09:40:58;;;;;;;16.10;4.25;;;8.30;99.90;;;;;;5022248;28;20060;-56
2021/03/27 09:43:42;;;;;;;20.98;3.50;;;8.20;99.90;;;;;;5027427;28;20025;-53
2021/03/27 09:46:29;;;;;;;10.85;2.97;;;8.20;99.90;;;;;;5027661;28;20037;-56
2021/03/27 09:49:17;;;;;;;17.15;3.83;;;8.10;99.90;;;;;;5028541;28;20044;-58
2021/03/27 09:52:30;;;;;;;12.57;3.58;;;8.30;99.90;;;;;;5028811;28;20139;-56
2021/03/27 09:55:19;;;;;;;14.10;4.10;;;8.60;99.90;;;;;;4952067;28;20053;-58
2021/03/27 09:57:56;;;;;;;8.27;2.08;;;8.90;99.90;;;;;;4954597;28;20082;-57
2021/03/27 10:01:16;;;;;;;14.82;3.90;;;8.50;99.90;;;;;;5004567;28;20115;-56
2021/03/27 10:04:09;;;;;;;15.40;5.47;;;8.50;99.90;;;;;;4961665;28;20093;-57
2021/03/27 10:06:41;;;;;;;12.48;4.35;;;8.50;99.90;;;;;;5027101;28;20052;-57
2021/03/27 10:09:31;;;;;;;21.65;7.15;;;9.10;99.90;;;;;;5027708;28;20434;-57
2021/03/27 10:12:03;;;;;;;15.85;3.03;;;9.20;99.90;;;;;;5025859;28;20091;-55
2021/03/27 10:14:37;;;;;;;11.05;3.10;;;9.50;99.90;;;;;;5028908;28;20021;-57
2021/03/27 10:17:20;;;;;;;;;;;10.00;99.70;;;;;;5044426;28;20458;-56
2021/03/27 10:20:24;;;;;;;13.65;3.92;;;10.70;98.50;;;;;;5024734;28;19911;-57
2021/03/27 10:23:05;;;;;;;14.45;2.55;;;11.10;96.30;;;;;;4968005;28;20030;-57
2021/03/27 10:25:41;;;;;;;20.05;7.28;;;11.20;97.50;;;;;;5017274;28;20038;-56
2021/03/27 10:28:28;;;;;;;9.82;2.30;;;11.60;96.40;;;;;;5006641;28;20049;-56
2021/03/27 10:31:01;;;;;;;14.32;2.53;;;11.40;94.60;;;;;;5030250;28;20037;-58
2021/03/27 10:33:40;;;;;;;12.20;2.33;;;10.80;94.30;;;;;;5032472;28;20072;-54
2021/03/27 10:36:23;;;;;;;10.75;1.95;;;10.30;96.10;;;;;;5027951;28;20036;-53
2021/03/27 10:39:23;;;;;;;14.35;2.17;;;10.00;99.40;;;;;;5017519;28;20029;-54
2021/03/27 10:41:57;;;;;;;11.10;4.72;;;9.80;99.90;;;;;;5030380;28;20025;-55
2021/03/27 10:44:47;;;;;;;11.02;2.45;;;9.70;99.90;;;;;;5030828;28;20475;-56
2021/03/27 10:47:20;;;;;;;8.40;2.38;;;9.60;99.90;;;;;;5027411;28;20038;-56
2021/03/27 10:49:53;;;;;;;9.20;1.20;;;10.10;99.90;;;;;;5012146;28;20112;-55
2021/03/27 10:52:56;;;;;;;10.18;1.90;;;10.30;99.90;;;;;;5023837;28;20108;-56
2021/03/27 10:55:52;;;;;;;11.80;2.88;;;9.90;99.90;;;;;;5018703;28;20026;-52
2021/03/27 10:58:37;;;;;;;12.77;2.80;;;10.30;99.90;;;;;;5028446;28;20023;-58
2021/03/27 11:01:25;;;;;;;;;;;10.30;99.80;;;;;;5018972;28;20045;-56
2021/03/27 11:04:06;;;;;;;7.82;2.10;;;10.20;99.30;;;;;;4997197;28;19921;-56
2021/03/27 11:06:43;;;;;;;19.88;5.68;;;9.90;99.90;;;;;;5029025;28;20029;-58
2021/03/27 11:09:27;;;;;;;5.57;2.03;;;9.90;99.90;;;;;;5032663;28;20021;-55
2021/03/27 11:12:02;;;;;;;;;;;9.80;99.90;;;;;;5028979;28;20557;-56
2021/03/27 11:14:39;;;;;;;5.18;1.10;;;10.00;98.90;;;;;;5030204;28;19923;-56
2021/03/27 11:17:11;;;;;;;7.75;2.47;;;10.20;97.20;;;;;;5031749;28;20075;-56
2021/03/27 11:20:03;;;;;;;10.68;4.38;;;10.30;96.50;;;;;;5031886;28;20029;-56
2021/03/27 11:22:55;;;;;;;13.75;3.55;;;10.40;97.20;;;;;;5031364;28;20483;-54
2021/03/27 11:25:55;;;;;;;5.30;1.55;;;10.40;97.90;;;;;;5013008;28;20037;-57
2021/03/27 11:28:47;;;;;;;12.77;3.47;;;10.70;97.20;;;;;;5028968;28;20542;-56
2021/03/27 11:31:31;;;;;;;5.10;2.22;;;10.80;98.40;;;;;;5034940;28;20034;-57
2021/03/27 11:34:07;;;;;;;2.50;1.10;;;10.60;97.70;;;;;;4998013;28;20049;-55
2021/03/27 11:36:41;;;;;;;5.25;1.17;;;10.80;96.90;;;;;;5032046;28;20041;-58
2021/03/27 11:39:34;;;;;;;3.78;1.65;;;10.60;97.20;;;;;;5030670;28;20025;-57
2021/03/27 11:42:21;;;;;;;9.82;1.17;;;9.90;98.20;;;;;;5013170;28;20492;-54
2021/03/27 11:45:16;;;;;;;6.65;1.63;;;10.10;99.90;;;;;;5012484;28;20107;-56
2021/03/27 11:47:47;;;;;;;5.82;2.00;;;10.40;98.80;;;;;;5011457;28;20049;-54
2021/03/27 11:50:15;;;;;;;7.70;2.08;;;10.30;98.00;;;;;;5008212;28;20022;-57
2021/03/27 11:52:58;;;;;;;9.60;2.47;;;10.40;99.90;;;;;;5016561;28;20033;-56
2021/03/27 11:55:46;;;;;;;8.50;3.35;;;10.20;99.30;;;;;;5011275;28;20570;-57
2021/03/27 12:02:14;;;;;;;5.38;1.55;;;10.60;99.50;;;;;;4935978;28;20098;-57
2021/03/27 12:04:54;;;;;;;8.05;1.67;;;11.30;97.90;;;;;;5035004;28;20075;-54
2021/03/27 12:07:31;;;;;;;11.57;4.72;;;11.60;94.90;;;;;;5020096;28;20037;-57
2021/03/27 12:10:13;;;;;;;7.38;1.58;;;11.70;94.50;;;;;;5026388;28;20487;-57
2021/03/27 12:13:02;;;;;;;13.13;2.30;;;11.30;93.30;;;;;;5044593;28;20040;-58
2021/03/27 12:15:47;;;;;;;12.30;2.17;;;11.20;92.30;;;;;;5027003;28;20022;-57
2021/03/27 12:18:45;;;;;;;10.30;1.70;;;10.60;92.40;;;;;;5030414;28;20549;-59
2021/03/27 12:21:21;;;;;;;8.27;2.05;;;10.60;92.40;;;;;;5020964;28;20033;-58
2021/03/27 12:24:11;;;;;;;4.65;1.77;;;10.90;93.70;;;;;;5020700;28;20113;-56
2021/03/27 12:26:45;;;;;;;7.03;1.73;;;11.20;93.10;;;;;;5020292;28;20025;-59
2021/03/27 12:29:19;;;;;;;5.32;1.88;;;11.00;92.40;;;;;;5026976;28;20022;-56
2021/03/27 12:32:09;;;;;;;7.45;1.50;;;10.80;94.00;;;;;;5029186;28;20037;-55
2021/03/27 12:34:38;;;;;;;4.72;1.63;;;10.90;95.70;;;;;;5029895;28;20124;-56
2021/03/27 12:37:20;;;;;;;6.20;1.90;;;11.00;95.40;;;;;;5024497;28;20101;-58
2021/03/27 12:40:18;;;;;;;6.43;2.15;;;10.90;94.30;;;;;;5022067;28;20071;-57
2021/03/27 12:42:51;;;;;;;8.20;1.80;;;10.80;94.00;;;;;;5022627;28;20582;-57
2021/03/27 12:45:34;;;;;;;7.20;1.70;;;10.90;94.40;;;;;;5030884;28;20091;-60
2021/03/27 12:48:47;;;;;;;9.73;2.10;;;10.90;93.10;;;;;;5033098;28;20041;-56
2021/03/27 12:51:34;;;;;;;7.20;1.85;;;10.70;93.40;;;;;;4939459;28;20042;-56
2021/03/27 12:54:02;;;;;;;4.80;1.27;;;11.00;93.60;;;;;;5020804;28;20025;-58
2021/03/27 12:56:35;;;;;;;6.50;2.10;;;11.00;90.20;;;;;;5010370;28;20028;-56
2021/03/27 12:59:34;;;;;;;9.57;1.95;;;10.70;88.20;;;;;;5033910;28;20112;-56
2021/03/27 13:02:24;;;;;;;6.75;1.50;;;10.70;88.70;;;;;;5018382;28;20032;-56
2021/03/27 13:05:02;;;;;;;9.68;1.80;;;10.60;90.40;;;;;;5019754;28;20092;-57
2021/03/27 13:08:06;;;;;;;4.68;1.75;;;10.30;90.50;;;;;;5009125;28;20060;-57
2021/03/27 13:10:36;;;;;;;7.40;2.38;;;10.30;92.00;;;;;;5017015;28;20025;-58
2021/03/27 13:13:06;;;;;;;2.83;1.10;;;9.70;93.00;;;;;;5020265;28;20068;-55
2021/03/27 13:15:58;;;;;;;8.93;1.55;;;9.80;93.50;;;;;;5029062;28;20021;-56
2021/03/27 13:18:38;;;;;;;9.75;1.42;;;9.90;94.30;;;;;;5012980;28;20033;-55
2021/03/27 13:21:16;;;;;;;5.88;1.77;;;10.00;93.90;;;;;;5028605;28;20117;-55
2021/03/27 13:24:08;;;;;;;4.97;1.70;;;9.90;94.10;;;;;;5022422;28;20657;-56
2021/03/27 13:26:34;;;;;;;5.82;1.80;;;9.80;94.20;;;;;;4992261;28;20064;-55
2021/03/27 13:29:03;;;;;;;8.00;1.85;;;9.90;94.60;;;;;;5022873;28;20033;-51
2021/03/27 13:31:40;;;;;;;7.13;2.00;;;10.00;93.40;;;;;;5034468;28;20018;-52
2021/03/27 13:34:24;;;;;;;7.95;1.85;;;10.00;94.50;;;;;;5031898;28;20017;-57
2021/03/27 13:37:13;;;;;;;4.22;1.70;;;9.90;93.70;;;;;;5023063;28;20428;-56
2021/03/27 13:39:57;;;;;;;6.05;1.60;;;9.80;93.10;;;;;;5009914;28;20053;-54
2021/03/27 13:42:51;;;;;;;5.05;1.48;;;9.80;93.50;;;;;;5025017;28;20044;-56
2021/03/27 13:45:38;;;;;;;5.40;1.77;;;9.90;94.80;;;;;;5025749;28;20418;-55
2021/03/27 13:48:22;;;;;;;3.40;1.20;;;9.80;93.70;;;;;;5025296;28;20025;-57
2021/03/27 13:51:03;;;;;;;6.03;1.92;;;9.80;95.50;;;;;;5014012;28;20029;-57
2021/03/27 13:53:42;;;;;;;5.03;1.88;;;9.90;94.70;;;;;;5025672;28;20038;-57
2021/03/27 13:56:23;;;;;;;9.25;2.20;;;9.80;95.00;;;;;;5028993;28;20033;-57
2021/03/27 13:58:55;;;;;;;6.60;1.92;;;10.00;96.20;;;;;;5021211;28;20032;-57
2021/03/27 14:01:34;;;;;;;9.68;2.45;;;10.00;95.60;;;;;;5017455;28;21360;-55
2021/03/27 14:04:07;;;;;;;8.63;2.45;;;10.10;95.60;;;;;;5008362;28;20072;-56
2021/03/27 14:06:43;;;;;;;14.10;2.57;;;10.20;95.60;;;;;;5032153;28;20032;-59
2021/03/27 14:09:30;;;;;;;5.80;2.08;;;10.10;93.70;;;;;;5023117;28;20421;-58
2021/03/27 14:12:20;;;;;;;9.80;2.00;;;9.90;94.30;;;;;;5024494;28;20025;-61
2021/03/27 14:15:00;;;;;;;5.57;1.83;;;9.90;94.30;;;;;;5026153;28;20036;-60
2021/03/27 14:17:59;;;;;;;7.25;1.80;;;10.10;94.60;;;;;;5026597;28;20029;-60
2021/03/27 14:20:42;;;;;;;12.25;2.25;;;10.30;94.40;;;;;;5028013;28;20368;-59
2021/03/27 14:23:29;;;;;;;8.52;2.40;;;10.50;92.80;;;;;;5020904;28;20030;-58
2021/03/27 14:26:11;;;;;;;6.55;1.88;;;10.60;91.10;;;;;;5019512;28;20124;-58
2021/03/27 14:28:46;;;;;;;7.88;1.40;;;10.70;88.30;;;;;;5021620;28;20029;-57